Terminal Aerodrome Forecast
Issued by NWS North Platte, NE

Home | Current Version | Previous Version | Text Only | Print | Product List | Glossary On
Versions: 1 2 3 4 5 6 7 8 9 10 11 12 13 14 15
000
FTUS43 KLBF 250520
TAFLBF
TAF
KLBF 250520Z 2506/2606 VRB06KT P6SM BKN250
     FM251600 14007KT P6SM FEW250
     FM252000 14012G18KT P6SM FEW250
     FM260100 12008KT P6SM BKN250=

USA.gov is the U.S. government's official web portal to all federal, state and local government web resources and services.